Time,TemperatureF,DewpointF,PressureIn,WindDirection,WindDirectionDegrees,WindSpeedMPH,WindSpeedGustMPH,Humidity,HourlyPrecipIn,Conditions,Clouds,dailyrainin,SoftwareType,DateUTC
2013-07-21 00:00:00,80.3,71.6,29.94,SW,225,1.1,1.1,75,0.00,,,0.00,WUHU216HW,2013-07-21 04:00:00,
2013-07-21 00:01:00,80.3,71.6,29.94,SW,225,1.1,1.1,75,0.00,,,0.00,WUHU216HW,2013-07-21 04:01:00,
2013-07-21 00:06:00,80.3,71.6,29.94,SW,225,1.1,1.1,75,0.00,,,0.00,WUHU216HW,2013-07-21 04:06:00,
2013-07-21 00:30:00,79.6,70.9,29.94,WSW,248,1.6,1.6,75,0.00,,,0.00,WUHU216HW,2013-07-21 04:30:00,
2013-07-21 00:35:00,79.6,70.9,29.94,WSW,248,1.6,1.6,75,0.00,,,0.00,WUHU216HW,2013-07-21 04:35:00,
2013-07-21 01:00:00,79.0,70.7,29.94,SSE,158,2.0,2.0,76,0.00,,,0.00,WUHU216HW,2013-07-21 05:00:00,
2013-07-21 01:05:00,79.0,70.7,29.94,SSE,158,2.0,2.0,76,0.00,,,0.00,WUHU216HW,2013-07-21 05:05:00,
2013-07-21 01:30:00,78.3,70.5,29.92,WNW,293,0.9,0.9,77,0.00,,,0.00,WUHU216HW,2013-07-21 05:30:00,
2013-07-21 01:35:00,78.3,70.5,29.92,WNW,293,0.9,0.9,77,0.00,,,0.00,WUHU216HW,2013-07-21 05:35:00,
2013-07-21 02:00:00,77.8,69.9,29.92,SW,225,0.4,0.4,77,0.00,,,0.00,WUHU216HW,2013-07-21 06:00:00,
2013-07-21 02:05:00,77.8,69.9,29.92,SW,225,0.4,0.4,77,0.00,,,0.00,WUHU216HW,2013-07-21 06:05:00,
2013-07-21 02:30:00,77.2,69.9,29.91,South,180,1.8,1.8,78,0.00,,,0.00,WUHU216HW,2013-07-21 06:30:00,
2013-07-21 02:35:00,77.2,69.9,29.91,South,180,1.8,1.8,78,0.00,,,0.00,WUHU216HW,2013-07-21 06:35:00,
2013-07-21 03:00:00,76.9,69.5,29.91,SW,225,0.7,0.7,78,0.00,,,0.00,WUHU216HW,2013-07-21 07:00:00,
2013-07-21 03:05:00,76.9,69.5,29.91,SW,225,0.7,0.7,78,0.00,,,0.00,WUHU216HW,2013-07-21 07:05:00,
2013-07-21 03:30:00,76.3,69.4,29.91,SSW,203,0.0,0.0,79,0.00,,,0.00,WUHU216HW,2013-07-21 07:30:00,
2013-07-21 03:35:00,76.3,69.4,29.91,SSW,203,0.0,0.0,79,0.00,,,0.00,WUHU216HW,2013-07-21 07:35:00,
2013-07-21 04:00:00,76.0,69.0,29.91,ESE,113,0.0,0.0,79,0.00,,,0.00,WUHU216HW,2013-07-21 08:00:00,
2013-07-21 04:05:00,76.0,69.0,29.91,ESE,113,0.0,0.0,79,0.00,,,0.00,WUHU216HW,2013-07-21 08:05:00,
2013-07-21 04:30:00,76.0,69.4,29.92,South,180,0.0,0.0,80,0.00,,,0.00,WUHU216HW,2013-07-21 08:30:00,
2013-07-21 04:35:00,76.0,69.4,29.92,South,180,0.0,0.0,80,0.00,,,0.00,WUHU216HW,2013-07-21 08:35:00,
2013-07-21 04:59:00,75.6,69.4,29.92,WSW,248,0.9,0.9,81,0.00,,,0.00,WUHU216HW,2013-07-21 08:59:00,
2013-07-21 05:04:00,75.6,69.4,29.92,WSW,248,0.9,0.9,81,0.00,,,0.00,WUHU216HW,2013-07-21 09:04:00,
2013-07-21 05:30:00,75.6,69.4,29.92,South,180,0.4,0.4,81,0.00,,,0.00,WUHU216HW,2013-07-21 09:30:00,
2013-07-21 05:35:00,75.6,69.4,29.92,South,180,0.4,0.4,81,0.00,,,0.00,WUHU216HW,2013-07-21 09:35:00,
2013-07-21 05:59:00,75.4,69.6,29.91,SSW,203,0.4,0.4,82,0.00,,,0.00,WUHU216HW,2013-07-21 09:59:00,
2013-07-21 06:04:00,75.4,69.6,29.91,SSW,203,0.4,0.4,82,0.00,,,0.00,WUHU216HW,2013-07-21 10:04:00,
2013-07-21 06:30:00,75.2,69.5,29.92,SW,225,0.0,0.0,82,0.00,,,0.00,WUHU216HW,2013-07-21 10:30:00,
2013-07-21 06:35:00,75.2,69.5,29.92,SW,225,0.0,0.0,82,0.00,,,0.00,WUHU216HW,2013-07-21 10:35:00,
2013-07-21 06:59:00,75.4,69.6,29.93,SSW,203,0.4,0.4,82,0.00,,,0.00,WUHU216HW,2013-07-21 10:59:00,
2013-07-21 07:04:00,75.4,69.6,29.93,SSW,203,0.4,0.4,82,0.00,,,0.00,WUHU216HW,2013-07-21 11:04:00,
2013-07-21 07:30:00,75.6,69.8,29.93,ESE,113,0.0,0.0,82,0.00,,,0.00,WUHU216HW,2013-07-21 11:30:00,
2013-07-21 07:35:00,75.6,69.8,29.93,ESE,113,0.0,0.0,82,0.00,,,0.00,WUHU216HW,2013-07-21 11:35:00,
2013-07-21 07:59:00,75.6,70.1,29.93,West,270,0.0,0.0,83,0.00,,,0.00,WUHU216HW,2013-07-21 11:59:00,
2013-07-21 08:04:00,75.6,70.1,29.93,West,270,0.0,0.0,83,0.00,,,0.00,WUHU216HW,2013-07-21 12:04:00,
2013-07-21 08:30:00,76.0,70.5,29.94,SW,225,1.1,1.1,83,0.00,,,0.00,WUHU216HW,2013-07-21 12:30:00,
2013-07-21 08:35:00,76.0,70.5,29.94,SW,225,1.1,1.1,83,0.00,,,0.00,WUHU216HW,2013-07-21 12:35:00,
2013-07-21 09:00:00,76.7,70.7,29.94,SSW,203,0.9,0.9,82,0.00,,,0.00,WUHU216HW,2013-07-21 13:00:00,
2013-07-21 09:05:00,76.7,70.7,29.94,SSW,203,0.9,0.9,82,0.00,,,0.00,WUHU216HW,2013-07-21 13:05:00,
2013-07-21 09:30:00,77.0,71.1,29.94,WNW,293,0.4,0.4,82,0.00,,,0.00,WUHU216HW,2013-07-21 13:30:00,
2013-07-21 09:35:00,77.0,71.1,29.94,WNW,293,0.4,0.4,82,0.00,,,0.00,WUHU216HW,2013-07-21 13:35:00,
2013-07-21 09:59:00,77.6,71.3,29.94,West,270,0.4,0.4,81,0.00,,,0.00,WUHU216HW,2013-07-21 13:59:00,
2013-07-21 10:04:00,77.6,71.3,29.94,West,270,0.4,0.4,81,0.00,,,0.00,WUHU216HW,2013-07-21 14:04:00,
2013-07-21 10:30:00,78.5,72.2,29.94,WNW,293,0.0,0.0,81,0.00,,,0.00,WUHU216HW,2013-07-21 14:30:00,
2013-07-21 10:35:00,78.5,72.2,29.94,WNW,293,0.0,0.0,81,0.00,,,0.00,WUHU216HW,2013-07-21 14:35:00,
2013-07-21 10:59:00,79.4,72.7,29.95,ENE,68,0.2,0.2,80,0.00,,,0.00,WUHU216HW,2013-07-21 14:59:00,
2013-07-21 11:04:00,79.4,72.7,29.95,ENE,68,0.2,0.2,80,0.00,,,0.00,WUHU216HW,2013-07-21 15:04:00,
2013-07-21 11:30:00,79.9,72.5,29.95,SE,135,0.4,0.4,78,0.00,,,0.00,WUHU216HW,2013-07-21 15:30:00,
2013-07-21 11:35:00,79.9,72.5,29.95,SE,135,0.4,0.4,78,0.00,,,0.00,WUHU216HW,2013-07-21 15:35:00,
2013-07-21 11:59:00,80.8,73.4,29.95,SE,135,0.9,0.9,78,0.00,,,0.00,WUHU216HW,2013-07-21 15:59:00,
2013-07-21 12:04:00,80.8,73.4,29.95,SE,135,0.9,0.9,78,0.00,,,0.00,WUHU216HW,2013-07-21 16:04:00,
2013-07-21 12:30:00,81.5,73.7,29.95,NW,315,0.4,0.4,77,0.00,,,0.00,WUHU216HW,2013-07-21 16:30:00,
2013-07-21 12:35:00,81.5,73.7,29.95,NW,315,0.4,0.4,77,0.00,,,0.00,WUHU216HW,2013-07-21 16:35:00,
2013-07-21 13:00:00,81.9,74.0,29.94,West,270,0.7,0.7,77,0.00,,,0.00,WUHU216HW,2013-07-21 17:00:00,
2013-07-21 13:05:00,81.9,74.0,29.94,West,270,0.7,0.7,77,0.00,,,0.00,WUHU216HW,2013-07-21 17:05:00,
2013-07-21 13:30:00,83.5,74.7,29.93,WSW,248,0.4,0.4,75,0.00,,,0.00,WUHU216HW,2013-07-21 17:30:00,
2013-07-21 13:35:00,83.5,74.7,29.93,WSW,248,0.4,0.4,75,0.00,,,0.00,WUHU216HW,2013-07-21 17:35:00,
2013-07-21 14:00:00,85.0,75.0,29.92,SSW,203,0.9,0.9,72,0.00,,,0.00,WUHU216HW,2013-07-21 18:00:00,
2013-07-21 14:05:00,85.0,75.0,29.92,SSW,203,0.9,0.9,72,0.00,,,0.00,WUHU216HW,2013-07-21 18:05:00,
2013-07-21 14:30:00,86.9,75.2,29.90,SSW,203,1.1,1.1,68,0.00,,,0.00,WUHU216HW,2013-07-21 18:30:00,
2013-07-21 14:35:00,86.9,75.2,29.90,SSW,203,1.1,1.1,68,0.00,,,0.00,WUHU216HW,2013-07-21 18:35:00,
2013-07-21 15:00:00,88.6,75.3,29.89,ESE,113,0.4,0.4,65,0.00,,,0.00,WUHU216HW,2013-07-21 19:00:00,
2013-07-21 15:05:00,88.6,75.3,29.89,ESE,113,0.4,0.4,65,0.00,,,0.00,WUHU216HW,2013-07-21 19:05:00,
2013-07-21 15:30:00,88.0,74.8,29.88,SSW,203,1.1,1.1,65,0.00,,,0.00,WUHU216HW,2013-07-21 19:30:00,
2013-07-21 15:35:00,88.0,74.8,29.88,SSW,203,1.1,1.1,65,0.00,,,0.00,WUHU216HW,2013-07-21 19:35:00,
2013-07-21 16:00:00,89.6,75.9,29.86,SE,135,0.4,0.4,64,0.00,,,0.00,WUHU216HW,2013-07-21 20:00:00,
2013-07-21 16:05:00,89.6,75.9,29.86,SE,135,0.4,0.4,64,0.00,,,0.00,WUHU216HW,2013-07-21 20:05:00,
2013-07-21 16:30:00,88.9,75.6,29.85,SW,225,2.5,2.5,65,0.00,,,0.00,WUHU216HW,2013-07-21 20:30:00,
2013-07-21 16:35:00,88.9,75.6,29.85,SW,225,2.5,2.5,65,0.00,,,0.00,WUHU216HW,2013-07-21 20:35:00,
2013-07-21 16:59:00,88.0,75.3,29.86,SSE,158,0.0,0.0,66,0.00,,,0.00,WUHU216HW,2013-07-21 20:59:00,
2013-07-21 17:04:00,88.0,75.3,29.86,SSE,158,0.0,0.0,66,0.00,,,0.00,WUHU216HW,2013-07-21 21:04:00,
2013-07-21 17:09:00,88.0,75.3,29.86,SSE,158,0.0,0.0,66,0.00,,,0.00,WUHU216HW,2013-07-21 21:09:00,
2013-07-21 17:30:00,86.9,75.2,29.86,West,270,0.0,0.0,68,0.00,,,0.00,WUHU216HW,2013-07-21 21:30:00,
2013-07-21 17:35:00,86.9,75.2,29.86,West,270,0.0,0.0,68,0.00,,,0.00,WUHU216HW,2013-07-21 21:35:00,
2013-07-21 17:59:00,86.2,75.0,29.86,West,270,0.0,0.0,69,0.00,,,0.00,WUHU216HW,2013-07-21 21:59:00,
2013-07-21 18:04:00,86.2,75.0,29.86,West,270,0.0,0.0,69,0.00,,,0.00,WUHU216HW,2013-07-21 22:04:00,
2013-07-21 18:30:00,85.7,75.2,29.87,WSW,248,0.0,0.0,71,0.00,,,0.00,WUHU216HW,2013-07-21 22:30:00,
2013-07-21 18:35:00,85.7,75.2,29.87,WSW,248,0.0,0.0,71,0.00,,,0.00,WUHU216HW,2013-07-21 22:35:00,
2013-07-21 18:59:00,83.2,72.8,29.87,NNE,23,0.9,0.9,71,0.00,,,0.00,WUHU216HW,2013-07-21 22:59:00,
2013-07-21 19:05:00,83.2,72.8,29.87,NNE,23,0.9,0.9,71,0.00,,,0.00,WUHU216HW,2013-07-21 23:05:00,
2013-07-21 19:30:00,81.7,71.4,29.87,NNE,23,0.2,0.2,71,0.00,,,0.00,WUHU216HW,2013-07-21 23:30:00,
2013-07-21 19:35:00,81.7,71.4,29.87,NNE,23,0.2,0.2,71,0.00,,,0.00,WUHU216HW,2013-07-21 23:35:00,
2013-07-21 19:59:00,81.4,71.5,29.87,ENE,68,0.0,0.0,72,0.00,,,0.00,WUHU216HW,2013-07-21 23:59:00,
2013-07-21 20:05:00,81.4,71.5,29.87,ENE,68,0.0,0.0,72,0.00,,,0.00,WUHU216HW,2013-07-22 00:05:00,
2013-07-21 20:30:00,80.8,72.2,29.88,ENE,68,0.0,0.0,75,0.00,,,0.00,WUHU216HW,2013-07-22 00:30:00,
2013-07-21 20:35:00,80.8,72.2,29.88,ENE,68,0.0,0.0,75,0.00,,,0.00,WUHU216HW,2013-07-22 00:35:00,
2013-07-21 20:59:00,80.5,72.2,29.89,East,90,0.4,0.4,76,0.00,,,0.00,WUHU216HW,2013-07-22 00:59:00,
2013-07-21 21:04:00,80.5,72.2,29.89,East,90,0.4,0.4,76,0.00,,,0.00,WUHU216HW,2013-07-22 01:04:00,
2013-07-21 21:30:00,79.9,72.5,29.90,SSW,203,0.9,0.9,78,0.00,,,0.00,WUHU216HW,2013-07-22 01:30:00,
2013-07-21 21:35:00,79.9,72.5,29.90,SSW,203,0.9,0.9,78,0.00,,,0.00,WUHU216HW,2013-07-22 01:35:00,
2013-07-21 21:59:00,78.5,71.0,29.91,ESE,113,0.2,0.2,78,0.00,,,0.00,WUHU216HW,2013-07-22 01:59:00,
2013-07-21 22:04:00,78.5,71.0,29.91,ESE,113,0.2,0.2,78,0.00,,,0.00,WUHU216HW,2013-07-22 02:04:00,
2013-07-21 22:30:00,77.9,71.6,29.91,SW,225,1.3,1.3,81,0.00,,,0.00,WUHU216HW,2013-07-22 02:30:00,
2013-07-21 22:35:00,77.9,71.6,29.91,SW,225,1.3,1.3,81,0.00,,,0.00,WUHU216HW,2013-07-22 02:35:00,
2013-07-21 23:00:00,77.0,70.7,29.91,North,0,0.7,0.7,81,0.01,,,0.00,WUHU216HW,2013-07-22 03:00:00,
2013-07-21 23:04:00,77.0,70.7,29.91,North,0,0.7,0.7,81,0.01,,,0.00,WUHU216HW,2013-07-22 03:04:00,
2013-07-21 23:30:00,76.7,71.1,29.91,SE,135,0.0,0.0,83,0.01,,,0.00,WUHU216HW,2013-07-22 03:30:00,
2013-07-21 23:35:00,76.7,71.1,29.91,SE,135,0.0,0.0,83,0.01,,,0.00,WUHU216HW,2013-07-22 03:35:00,